Time;durP1;ratioP1;P1;durP2;ratioP2;P2;SDS_P1;SDS_P2;PMS_P1;PMS_P2;Temp;Humidity;BMP_temperature;BMP_pressure;BME280_temperature;BME280_humidity;BME280_pressure;Samples;Min_cycle;Max_cycle;Signal;HPM_P1;HPM_P2
2024/01/18 00:01:57;;;;;;;9.50;4.50;;;14.40;37.60;;;;;;5147989;27;45290;-49
2024/01/18 00:04:24;;;;;;;7.65;4.07;;;14.40;37.50;;;;;;5150084;27;45183;-49
2024/01/18 00:06:52;;;;;;;7.03;4.00;;;14.40;38.10;;;;;;5150398;27;45298;-49
2024/01/18 00:09:19;;;;;;;7.20;4.47;;;14.50;37.80;;;;;;5149677;27;45125;-49
2024/01/18 00:11:46;;;;;;;7.53;4.22;;;14.40;37.70;;;;;;5149693;27;45534;-49
2024/01/18 00:14:13;;;;;;;8.63;4.30;;;14.40;37.70;;;;;;5147977;27;45264;-49
2024/01/18 00:16:40;;;;;;;7.20;4.10;;;14.40;37.80;;;;;;5147433;27;45489;-49
2024/01/18 00:19:08;;;;;;;7.95;4.63;;;14.40;37.80;;;;;;5147244;27;46243;-49
2024/01/18 00:21:35;;;;;;;9.93;4.63;;;14.30;37.70;;;;;;5148081;27;45272;-49
2024/01/18 00:24:02;;;;;;;7.13;4.43;;;14.40;37.80;;;;;;5151473;27;45399;-49
2024/01/18 00:26:28;;;;;;;9.25;4.38;;;14.40;37.60;;;;;;5152538;27;45342;-49
2024/01/18 00:28:55;;;;;;;6.40;4.20;;;14.30;37.70;;;;;;5154087;27;45165;-49
2024/01/18 00:31:22;;;;;;;10.23;4.22;;;14.30;37.70;;;;;;5154451;27;45112;-49
2024/01/18 00:33:49;;;;;;;11.85;4.47;;;14.30;37.70;;;;;;5152341;27;45121;-49
2024/01/18 00:36:17;;;;;;;8.25;4.68;;;14.30;37.60;;;;;;5150699;27;45205;-49
2024/01/18 00:38:44;;;;;;;8.05;3.88;;;14.30;37.60;;;;;;5149484;27;45413;-49
2024/01/18 00:41:10;;;;;;;7.70;4.25;;;14.30;37.60;;;;;;5155363;27;44690;-49
2024/01/18 00:43:39;;;;;;;7.13;4.30;;;14.30;37.70;;;;;;5155493;27;45450;-49
2024/01/18 00:46:07;;;;;;;6.88;4.07;;;14.30;37.70;;;;;;5152028;27;45144;-49
2024/01/18 00:48:34;;;;;;;5.90;3.88;;;14.40;37.80;;;;;;5152947;27;45431;-49
2024/01/18 00:51:00;;;;;;;8.32;4.25;;;14.40;37.80;;;;;;5150816;27;45987;-49
2024/01/18 00:53:29;;;;;;;7.82;4.55;;;14.40;37.90;;;;;;5146936;27;44738;-49
2024/01/18 00:55:56;;;;;;;10.48;4.20;;;14.30;37.90;;;;;;5155715;27;45504;-49
2024/01/18 00:58:23;;;;;;;7.65;4.13;;;14.30;37.90;;;;;;5157209;27;46238;-49
2024/01/18 01:00:49;;;;;;;8.55;4.15;;;14.30;37.90;;;;;;5155583;27;45222;-49
2024/01/18 01:03:16;;;;;;;7.93;4.15;;;14.30;38.00;;;;;;5150925;27;45117;-49
2024/01/18 01:05:43;;;;;;;7.88;3.92;;;14.30;38.10;;;;;;5155858;27;45054;-49
2024/01/18 01:08:10;;;;;;;7.85;3.85;;;14.30;38.00;;;;;;5147115;27;45292;-49
2024/01/18 01:10:38;;;;;;;8.27;4.15;;;14.30;39.20;;;;;;5151281;27;45484;-49
2024/01/18 01:13:05;;;;;;;7.38;3.60;;;14.30;37.90;;;;;;5152512;27;45496;-49
2024/01/18 01:15:32;;;;;;;7.13;4.05;;;14.30;38.00;;;;;;5151714;27;45521;-49
2024/01/18 01:17:58;;;;;;;8.95;4.20;;;14.30;38.10;;;;;;5150471;27;47304;-49
2024/01/18 01:20:25;;;;;;;8.20;4.22;;;14.30;38.10;;;;;;5152779;27;45245;-48
2024/01/18 01:22:52;;;;;;;7.97;3.85;;;14.30;38.10;;;;;;5154146;27;45406;-49
2024/01/18 01:25:19;;;;;;;8.65;4.10;;;14.30;38.10;;;;;;5149535;27;45381;-49
2024/01/18 01:27:47;;;;;;;7.30;4.18;;;14.30;38.10;;;;;;5149185;27;45316;-49
2024/01/18 01:30:14;;;;;;;7.25;4.00;;;14.30;39.30;;;;;;5148783;27;45183;-49
2024/01/18 01:32:41;;;;;;;5.95;3.70;;;14.30;38.20;;;;;;5151503;27;44721;-49
2024/01/18 01:35:08;;;;;;;9.95;4.65;;;14.30;38.10;;;;;;5151092;27;45206;-49
2024/01/18 01:37:35;;;;;;;8.95;4.15;;;14.30;38.30;;;;;;5152994;27;45424;-49
2024/01/18 01:40:01;;;;;;;7.43;4.20;;;14.30;38.20;;;;;;5148043;27;45470;-49
2024/01/18 01:42:28;;;;;;;6.93;4.03;;;14.30;39.30;;;;;;5151290;27;45357;-49
2024/01/18 01:44:56;;;;;;;5.22;3.42;;;14.30;38.10;;;;;;5151185;27;45335;-49
2024/01/18 01:47:23;;;;;;;7.00;3.85;;;14.30;38.20;;;;;;5152662;27;47598;-49
2024/01/18 01:49:51;;;;;;;8.75;4.00;;;14.30;38.20;;;;;;5150442;27;45129;-49
2024/01/18 01:52:18;;;;;;;9.48;4.85;;;14.40;38.20;;;;;;5153761;27;45283;-49
2024/01/18 01:54:47;;;;;;;8.18;4.20;;;14.40;38.20;;;;;;5150229;27;45195;-49
2024/01/18 01:57:17;;;;;;;7.00;4.07;;;14.40;38.20;;;;;;5147810;27;45458;-49
2024/01/18 01:59:44;;;;;;;8.18;4.05;;;14.40;38.20;;;;;;5149528;27;45156;-48
2024/01/18 02:02:14;;;;;;;6.80;4.00;;;14.30;38.10;;;;;;5149449;27;44689;-48
2024/01/18 02:04:41;;;;;;;5.63;3.72;;;14.30;38.00;;;;;;5156435;27;45235;-49
2024/01/18 02:07:09;;;;;;;5.55;3.40;;;14.30;38.00;;;;;;5150193;27;46512;-49
2024/01/18 02:09:36;;;;;;;8.13;4.38;;;14.30;38.10;;;;;;5155415;27;45624;-49
2024/01/18 02:12:04;;;;;;;8.05;4.70;;;14.30;38.20;;;;;;5149939;27;45172;-48
2024/01/18 02:14:31;;;;;;;5.97;3.65;;;14.30;38.20;;;;;;5155860;27;44659;-49
2024/01/18 02:16:58;;;;;;;8.15;4.30;;;14.30;38.30;;;;;;5148957;27;46955;-49
2024/01/18 02:19:26;;;;;;;6.75;4.15;;;14.30;38.10;;;;;;5151964;27;45145;-49
2024/01/18 02:21:53;;;;;;;8.18;4.30;;;14.30;38.10;;;;;;5156851;27;44684;-49
2024/01/18 02:24:24;;;;;;;7.50;4.47;;;14.30;38.00;;;;;;5153112;27;45473;-49
2024/01/18 02:26:52;;;;;;;9.75;4.82;;;14.30;37.70;;;;;;5151105;27;46999;-49
2024/01/18 02:29:18;;;;;;;9.35;4.82;;;14.30;37.10;;;;;;5154257;27;45197;-48
2024/01/18 02:31:45;;;;;;;8.63;4.72;;;14.20;36.80;;;;;;5150829;27;44673;-48
2024/01/18 02:34:15;;;;;;;7.47;3.92;;;14.20;36.40;;;;;;5151383;27;45496;-48
2024/01/18 02:36:43;;;;;;;5.68;3.72;;;14.30;36.40;;;;;;5150672;27;45303;-49
2024/01/18 02:39:09;;;;;;;8.48;5.00;;;14.30;40.50;;;;;;5152766;27;45416;-51
2024/01/18 02:41:36;;;;;;;7.28;4.82;;;14.30;39.30;;;;;;5150781;27;45127;-49
2024/01/18 02:44:05;;;;;;;10.35;4.90;;;14.30;38.10;;;;;;5153685;27;45258;-49
2024/01/18 02:46:32;;;;;;;7.38;4.47;;;14.30;37.30;;;;;;5147871;27;46584;-49
2024/01/18 02:48:59;;;;;;;8.10;4.70;;;14.30;36.80;;;;;;5150309;27;45223;-49
2024/01/18 02:51:26;;;;;;;6.05;4.47;;;14.30;36.50;;;;;;5151083;27;45193;-49
2024/01/18 02:53:53;;;;;;;9.48;5.07;;;14.20;36.40;;;;;;5152616;27;44882;-49
2024/01/18 02:56:21;;;;;;;7.22;5.07;;;14.20;36.20;;;;;;5153114;27;45193;-49
2024/01/18 02:58:48;;;;;;;9.80;4.90;;;14.10;35.90;;;;;;5150601;27;45157;-49
2024/01/18 03:01:16;;;;;;;8.32;5.05;;;14.10;35.70;;;;;;5152366;27;45153;-49
2024/01/18 03:03:43;;;;;;;9.23;5.40;;;14.10;35.60;;;;;;5151661;27;45309;-49
2024/01/18 03:06:10;;;;;;;9.23;5.15;;;14.10;35.60;;;;;;5146986;27;46523;-49
2024/01/18 03:08:37;;;;;;;7.70;4.55;;;14.10;35.70;;;;;;5148480;27;45157;-49
2024/01/18 03:11:03;;;;;;;8.40;5.07;;;14.10;35.40;;;;;;5152371;27;45223;-49
2024/01/18 03:13:31;;;;;;;10.90;5.20;;;14.10;35.40;;;;;;5154272;27;45156;-49
2024/01/18 03:15:58;;;;;;;8.85;5.38;;;14.10;35.40;;;;;;5150240;27;46248;-49
2024/01/18 03:18:26;;;;;;;8.63;4.90;;;14.10;35.20;;;;;;5152589;27;45238;-49
2024/01/18 03:20:52;;;;;;;7.45;4.80;;;14.10;35.10;;;;;;5149237;27;45310;-49
2024/01/18 03:23:19;;;;;;;8.73;5.22;;;14.10;35.00;;;;;;5149822;27;45247;-49
2024/01/18 03:25:46;;;;;;;9.00;5.10;;;14.10;35.20;;;;;;5150366;27;45163;-49
2024/01/18 03:28:13;;;;;;;8.80;4.88;;;14.00;34.80;;;;;;5152729;27;45124;-49
2024/01/18 03:30:40;;;;;;;9.18;5.22;;;14.10;34.90;;;;;;5152346;27;45148;-49
2024/01/18 03:33:07;;;;;;;8.02;5.18;;;14.10;34.50;;;;;;5148738;27;45612;-49
2024/01/18 03:35:35;;;;;;;7.78;5.30;;;14.10;34.60;;;;;;5149638;27;46550;-49
2024/01/18 03:38:02;;;;;;;8.98;5.10;;;14.20;34.60;;;;;;5149032;27;45493;-49
2024/01/18 03:40:29;;;;;;;9.32;5.18;;;14.10;34.10;;;;;;5148244;27;45241;-49
2024/01/18 03:42:55;;;;;;;8.52;5.00;;;14.20;34.10;;;;;;5148409;27;45302;-49
2024/01/18 03:45:22;;;;;;;8.43;5.13;;;14.20;34.10;;;;;;5152176;27;48051;-49
2024/01/18 03:47:49;;;;;;;9.25;4.78;;;14.10;34.10;;;;;;5152736;27;45227;-49
2024/01/18 03:50:16;;;;;;;11.55;5.75;;;14.10;34.10;;;;;;5151881;27;45154;-49
2024/01/18 03:52:44;;;;;;;9.88;4.75;;;14.10;34.30;;;;;;5149514;27;45117;-49
2024/01/18 03:55:11;;;;;;;8.02;4.90;;;14.10;34.00;;;;;;5150366;27;46504;-48
2024/01/18 03:57:39;;;;;;;8.10;4.68;;;14.00;34.00;;;;;;5151231;27;44690;-48
2024/01/18 04:00:09;;;;;;;8.38;4.70;;;14.00;34.10;;;;;;5153473;27;45145;-49
2024/01/18 04:02:36;;;;;;;7.82;4.57;;;14.00;34.10;;;;;;5152557;27;45457;-48
2024/01/18 04:05:03;;;;;;;8.55;4.93;;;14.00;34.40;;;;;;5152000;27;45282;-49
2024/01/18 04:07:29;;;;;;;9.88;5.25;;;14.00;34.20;;;;;;5155200;27;45224;-48
2024/01/18 04:09:57;;;;;;;8.15;4.78;;;14.00;34.30;;;;;;5153883;27;45195;-49
2024/01/18 04:12:25;;;;;;;6.78;4.60;;;14.10;34.30;;;;;;5155580;27;45135;-49
2024/01/18 04:14:51;;;;;;;7.05;4.57;;;14.00;34.30;;;;;;5153361;27;45415;-49
2024/01/18 04:17:18;;;;;;;9.65;5.40;;;14.00;34.30;;;;;;5152371;27;45472;-49
2024/01/18 04:19:45;;;;;;;6.85;5.15;;;14.00;34.40;;;;;;5158670;27;44644;-49
2024/01/18 04:22:11;;;;;;;8.65;5.32;;;14.00;34.30;;;;;;5153812;27;45143;-49
2024/01/18 04:24:38;;;;;;;9.07;5.10;;;14.10;34.40;;;;;;5151466;27;47199;-49
2024/01/18 04:27:06;;;;;;;8.63;5.00;;;14.10;34.40;;;;;;5152067;27;45130;-49
2024/01/18 04:29:33;;;;;;;8.55;4.95;;;14.10;34.40;;;;;;5155208;27;45184;-49
2024/01/18 04:32:00;;;;;;;10.13;5.57;;;14.10;34.40;;;;;;5153816;27;44848;-49
2024/01/18 04:34:26;;;;;;;8.35;4.55;;;14.10;34.30;;;;;;5155639;27;45188;-49
2024/01/18 04:36:53;;;;;;;7.35;4.78;;;14.20;34.30;;;;;;5156214;27;45169;-49
2024/01/18 04:39:20;;;;;;;6.95;4.55;;;14.20;34.30;;;;;;5151465;27;45976;-49
2024/01/18 04:41:47;;;;;;;9.98;4.88;;;14.10;34.40;;;;;;5152824;27;45281;-48
2024/01/18 04:44:15;;;;;;;9.02;4.80;;;14.10;34.50;;;;;;5155123;27;46536;-49
2024/01/18 04:46:42;;;;;;;9.45;4.93;;;14.10;35.80;;;;;;5152057;27;45306;-49
2024/01/18 04:49:09;;;;;;;7.72;5.00;;;14.00;34.40;;;;;;5151263;27;45259;-49
2024/01/18 04:51:36;;;;;;;8.43;4.95;;;13.90;34.40;;;;;;5152496;27;45180;-49
2024/01/18 04:54:03;;;;;;;7.07;4.65;;;14.00;34.50;;;;;;5149920;27;47609;-49
2024/01/18 04:56:29;;;;;;;10.00;5.25;;;13.90;34.30;;;;;;5154932;27;45351;-49
2024/01/18 04:58:56;;;;;;;7.55;5.10;;;13.90;34.30;;;;;;5157314;27;45284;-48
2024/01/18 05:01:25;;;;;;;7.63;5.00;;;13.90;34.30;;;;;;5152702;27;45167;-48
2024/01/18 05:03:51;;;;;;;8.18;5.15;;;13.90;34.30;;;;;;5150845;27;45613;-48
2024/01/18 05:06:18;;;;;;;8.60;4.80;;;13.90;34.20;;;;;;5151055;27;45311;-49
2024/01/18 05:08:46;;;;;;;8.35;4.90;;;13.90;34.00;;;;;;5150614;27;45221;-48
2024/01/18 05:11:13;;;;;;;8.77;5.20;;;13.80;33.80;;;;;;5156518;27;44729;-48
2024/01/18 05:13:40;;;;;;;6.90;4.65;;;13.80;33.70;;;;;;5151806;27;46324;-48
2024/01/18 05:16:07;;;;;;;9.60;4.93;;;13.90;33.70;;;;;;5150820;27;45123;-48
2024/01/18 05:18:35;;;;;;;6.85;4.68;;;13.90;33.70;;;;;;5155280;27;45262;-48
2024/01/18 05:21:02;;;;;;;8.93;5.13;;;13.90;33.50;;;;;;5153247;27;45599;-48
2024/01/18 05:23:28;;;;;;;8.55;5.00;;;13.90;33.50;;;;;;5153966;27;45234;-49
2024/01/18 05:25:55;;;;;;;7.13;4.47;;;13.90;33.70;;;;;;5151301;27;45522;-49
2024/01/18 05:28:23;;;;;;;7.72;5.28;;;13.90;33.40;;;;;;5158606;27;45419;-49
2024/01/18 05:30:50;;;;;;;6.90;4.25;;;13.90;33.40;;;;;;5152774;27;45253;-49
2024/01/18 05:33:18;;;;;;;7.60;4.28;;;13.90;33.10;;;;;;5152580;27;46156;-49
2024/01/18 05:35:46;;;;;;;5.60;4.00;;;13.90;33.20;;;;;;5156717;27;45398;-49
2024/01/18 05:38:12;;;;;;;7.57;4.85;;;13.90;32.90;;;;;;5149471;27;44662;-49
2024/01/18 05:40:39;;;;;;;9.30;4.53;;;13.80;33.00;;;;;;5151681;27;45365;-49
2024/01/18 05:43:06;;;;;;;8.10;4.72;;;13.90;34.30;;;;;;5152062;27;47010;-49
2024/01/18 05:45:33;;;;;;;6.38;4.32;;;13.90;38.30;;;;;;5152324;27;45181;-49
2024/01/18 05:48:01;;;;;;;8.60;4.45;;;13.90;36.10;;;;;;5147823;27;44732;-49
2024/01/18 05:50:27;;;;;;;7.20;4.50;;;14.00;35.50;;;;;;5148443;27;45203;-49
2024/01/18 05:52:57;;;;;;;8.73;4.88;;;14.00;34.80;;;;;;5151484;27;45516;-49
2024/01/18 05:55:24;;;;;;;7.15;4.70;;;14.00;34.70;;;;;;5152777;27;45169;-49
2024/01/18 05:57:50;;;;;;;7.05;4.78;;;14.00;34.50;;;;;;5152324;27;44668;-48
2024/01/18 06:00:17;;;;;;;10.25;5.53;;;14.00;34.40;;;;;;5153835;27;45207;-48
2024/01/18 06:02:44;;;;;;;7.20;4.45;;;14.00;34.10;;;;;;5149744;27;45437;-49
2024/01/18 06:05:11;;;;;;;8.07;4.30;;;14.00;34.10;;;;;;5150844;27;45302;-49
2024/01/18 06:07:38;;;;;;;9.10;4.90;;;13.90;34.00;;;;;;5150248;27;45140;-49
2024/01/18 06:10:06;;;;;;;7.78;5.20;;;13.90;33.90;;;;;;5148913;27;45287;-49
2024/01/18 06:12:33;;;;;;;7.28;4.70;;;14.00;34.00;;;;;;5152781;27;45433;-49
2024/01/18 06:15:00;;;;;;;10.45;5.22;;;14.00;34.00;;;;;;5149003;27;45191;-49
2024/01/18 06:17:27;;;;;;;8.27;4.75;;;14.00;33.90;;;;;;5149344;27;45147;-49
2024/01/18 06:19:54;;;;;;;7.30;5.13;;;14.00;33.80;;;;;;5151002;27;44913;-49
2024/01/18 06:22:21;;;;;;;8.80;4.80;;;14.00;33.60;;;;;;5152953;27;45231;-48
2024/01/18 06:24:48;;;;;;;8.40;4.75;;;14.00;33.70;;;;;;5149988;27;45237;-49
2024/01/18 06:27:16;;;;;;;9.98;5.38;;;14.00;33.80;;;;;;5150741;27;44674;-49
2024/01/18 06:29:43;;;;;;;6.68;4.82;;;14.00;33.80;;;;;;5147944;27;45124;-49
2024/01/18 06:32:10;;;;;;;7.40;4.72;;;14.00;33.90;;;;;;5150939;27;45427;-49
2024/01/18 06:34:37;;;;;;;9.02;5.32;;;13.90;33.60;;;;;;5151602;27;45105;-49
2024/01/18 06:37:04;;;;;;;8.90;4.95;;;14.00;33.70;;;;;;5150267;27;45186;-49
2024/01/18 06:39:31;;;;;;;11.07;5.35;;;13.90;33.50;;;;;;5153825;27;45274;-49
2024/01/18 06:41:58;;;;;;;9.70;5.60;;;13.90;33.60;;;;;;5156514;27;45071;-49
2024/01/18 06:44:26;;;;;;;10.88;5.13;;;13.90;33.60;;;;;;5150989;27;45121;-49
2024/01/18 06:46:52;;;;;;;7.47;5.13;;;13.90;33.50;;;;;;5153908;27;45294;-49
2024/01/18 06:49:19;;;;;;;10.95;5.15;;;13.90;33.30;;;;;;5149683;27;45310;-49
2024/01/18 06:51:46;;;;;;;9.07;5.18;;;13.90;33.30;;;;;;5150357;27;45419;-49
2024/01/18 06:54:13;;;;;;;11.13;4.95;;;13.90;33.20;;;;;;5147374;27;44677;-49
2024/01/18 06:56:40;;;;;;;7.95;4.90;;;13.90;33.10;;;;;;5149948;27;45338;-49
2024/01/18 06:59:06;;;;;;;7.60;4.65;;;13.90;33.20;;;;;;5148874;27;45459;-49
2024/01/18 07:01:34;;;;;;;9.02;4.72;;;13.90;33.20;;;;;;5151407;27;46141;-49
2024/01/18 07:04:01;;;;;;;9.80;5.32;;;13.90;33.10;;;;;;5150187;27;45291;-49
2024/01/18 07:06:28;;;;;;;8.10;4.90;;;13.90;33.00;;;;;;5146428;27;45285;-49
2024/01/18 07:08:55;;;;;;;10.50;5.30;;;13.90;32.80;;;;;;5147477;27;45480;-49
2024/01/18 07:11:22;;;;;;;7.72;4.90;;;14.00;32.80;;;;;;5146934;27;45388;-49
2024/01/18 07:13:49;;;;;;;9.30;5.28;;;14.00;32.70;;;;;;5149745;27;44697;-49
2024/01/18 07:16:15;;;;;;;8.45;5.32;;;14.00;32.70;;;;;;5146565;27;49112;-49
2024/01/18 07:18:44;;;;;;;9.23;5.18;;;14.00;32.80;;;;;;5150899;27;45265;-48
2024/01/18 07:21:10;;;;;;;8.75;5.35;;;14.00;32.80;;;;;;5148524;27;47973;-48
2024/01/18 07:23:37;;;;;;;9.90;5.07;;;14.00;32.80;;;;;;5148109;27;45121;-48
2024/01/18 07:26:04;;;;;;;7.85;4.72;;;14.00;32.90;;;;;;5149288;27;45177;-49
2024/01/18 07:28:31;;;;;;;9.10;5.53;;;13.90;32.90;;;;;;5147018;27;45351;-48
2024/01/18 07:30:57;;;;;;;9.27;5.00;;;13.90;32.90;;;;;;5149048;27;46254;-49
2024/01/18 07:33:24;;;;;;;8.23;5.03;;;13.90;32.90;;;;;;5148042;27;45263;-49
2024/01/18 07:35:52;;;;;;;9.38;5.25;;;13.90;32.90;;;;;;5146424;27;45260;-49
2024/01/18 07:38:19;;;;;;;8.98;5.30;;;13.90;32.90;;;;;;5145767;27;45482;-48
2024/01/18 07:40:46;;;;;;;9.57;5.65;;;13.90;32.90;;;;;;5150335;27;46319;-49
2024/01/18 07:43:14;;;;;;;8.73;5.10;;;13.90;32.70;;;;;;5147853;27;45309;-49
2024/01/18 07:45:41;;;;;;;8.32;4.70;;;13.90;32.50;;;;;;5148447;27;44703;-48
2024/01/18 07:48:08;;;;;;;8.70;4.90;;;13.90;32.60;;;;;;5147000;27;45314;-49
2024/01/18 07:50:35;;;;;;;9.10;5.50;;;13.90;32.60;;;;;;5147722;27;45326;-49
2024/01/18 07:53:03;;;;;;;7.53;5.13;;;13.90;32.40;;;;;;5146188;27;45286;-48
2024/01/18 07:55:30;;;;;;;10.02;5.30;;;13.90;32.30;;;;;;5146039;27;45160;-49
2024/01/18 07:57:56;;;;;;;7.93;4.85;;;13.90;32.40;;;;;;5148546;27;45241;-49
2024/01/18 08:00:23;;;;;;;9.65;5.38;;;13.90;35.80;;;;;;5148268;27;47079;-49
2024/01/18 08:02:50;;;;;;;9.45;5.15;;;14.00;34.80;;;;;;5146805;27;45263;-49
2024/01/18 08:05:17;;;;;;;9.63;5.22;;;13.90;33.80;;;;;;5147224;27;45224;-49
2024/01/18 08:07:43;;;;;;;7.30;4.78;;;13.90;33.10;;;;;;5147255;27;45480;-48
2024/01/18 08:10:12;;;;;;;7.00;5.05;;;13.90;32.90;;;;;;5146431;27;45407;-49
2024/01/18 08:12:39;;;;;;;8.13;5.13;;;13.90;32.50;;;;;;5147325;27;44691;-49
2024/01/18 08:15:07;;;;;;;8.35;4.90;;;13.90;32.30;;;;;;5146905;27;46805;-49
2024/01/18 08:17:34;;;;;;;8.25;5.10;;;13.90;32.10;;;;;;5146892;27;45202;-49
2024/01/18 08:20:00;;;;;;;8.20;5.25;;;13.90;32.10;;;;;;5148075;27;46984;-49
2024/01/18 08:22:27;;;;;;;9.55;5.13;;;13.80;32.20;;;;;;5147581;27;44662;-49
2024/01/18 08:24:54;;;;;;;7.30;5.10;;;13.80;32.00;;;;;;5146511;27;45335;-49
2024/01/18 08:27:23;;;;;;;8.30;5.00;;;13.80;31.80;;;;;;5145520;27;45324;-49
2024/01/18 08:29:50;;;;;;;7.00;4.63;;;13.80;32.30;;;;;;5147726;27;47197;-49
2024/01/18 08:32:17;;;;;;;6.65;4.80;;;13.80;32.60;;;;;;5146750;27;45282;-49
2024/01/18 08:34:44;;;;;;;6.53;4.82;;;13.90;32.90;;;;;;5146393;27;44671;-49
2024/01/18 08:37:10;;;;;;;6.75;4.35;;;13.90;33.00;;;;;;5146062;27;45255;-49
2024/01/18 08:39:38;;;;;;;7.95;4.80;;;13.90;33.00;;;;;;5145399;27;46562;-49
2024/01/18 08:42:05;;;;;;;7.32;4.63;;;13.90;33.10;;;;;;5147797;27;45271;-49
2024/01/18 08:44:33;;;;;;;6.45;4.35;;;13.90;33.20;;;;;;5149944;27;45142;-49
2024/01/18 08:47:00;;;;;;;10.93;5.03;;;13.90;33.30;;;;;;5149501;27;45197;-49
2024/01/18 08:49:27;;;;;;;8.27;5.22;;;13.90;33.30;;;;;;5147828;27;46381;-49
2024/01/18 08:51:54;;;;;;;8.27;4.72;;;13.90;33.40;;;;;;5150685;27;45221;-49
2024/01/18 08:54:21;;;;;;;6.50;4.50;;;14.00;33.60;;;;;;5149171;27;45340;-49
2024/01/18 08:56:48;;;;;;;6.75;4.55;;;14.00;33.70;;;;;;5150118;27;46089;-49
2024/01/18 08:59:15;;;;;;;7.43;4.57;;;14.00;33.70;;;;;;5147480;27;46015;-49
2024/01/18 09:01:44;;;;;;;7.07;4.57;;;14.00;33.80;;;;;;5153843;27;45327;-49
2024/01/18 09:04:10;;;;;;;7.53;4.47;;;14.00;33.70;;;;;;5150760;27;45294;-49
2024/01/18 09:06:37;;;;;;;7.40;4.53;;;14.00;33.60;;;;;;5149082;27;45192;-49
2024/01/18 09:09:04;;;;;;;9.20;4.75;;;14.10;33.90;;;;;;5148897;27;46593;-49
2024/01/18 09:11:31;;;;;;;6.68;4.43;;;14.00;33.70;;;;;;5150426;27;45297;-49
2024/01/18 09:13:58;;;;;;;7.07;4.35;;;14.00;33.70;;;;;;5151706;27;45184;-49
2024/01/18 09:16:24;;;;;;;10.10;5.20;;;14.00;33.70;;;;;;5146777;27;44831;-49
2024/01/18 09:18:52;;;;;;;7.82;4.75;;;14.00;33.90;;;;;;5150338;27;45295;-49
2024/01/18 09:21:19;;;;;;;8.00;4.78;;;14.00;34.00;;;;;;5152554;27;45112;-49
2024/01/18 09:23:46;;;;;;;8.25;4.70;;;14.00;34.00;;;;;;5148164;27;45431;-49
2024/01/18 09:26:13;;;;;;;8.60;4.20;;;14.00;34.10;;;;;;5150599;27;45483;-49
2024/01/18 09:28:40;;;;;;;8.68;4.45;;;14.00;34.30;;;;;;5147940;27;47711;-49
2024/01/18 09:31:07;;;;;;;9.00;4.80;;;14.00;34.20;;;;;;5150980;27;45310;-49
2024/01/18 09:33:34;;;;;;;8.68;4.90;;;14.00;34.30;;;;;;5149771;27;45258;-49
2024/01/18 09:36:02;;;;;;;6.65;4.53;;;14.00;34.20;;;;;;5150092;27;45335;-49
2024/01/18 09:38:29;;;;;;;7.70;4.72;;;14.00;34.40;;;;;;5147276;27;46559;-49
2024/01/18 09:41:03;;;;;;;8.10;4.68;;;14.00;34.40;;;;;;5153926;27;45225;-49
2024/01/18 09:43:36;;;;;;;9.02;4.65;;;14.00;34.40;;;;;;5150546;27;45227;-49
2024/01/18 09:46:05;;;;;;;6.43;4.55;;;14.00;34.60;;;;;;5149882;27;45255;-49
2024/01/18 09:48:32;;;;;;;7.40;4.45;;;14.00;34.60;;;;;;5148676;27;45129;-48
2024/01/18 09:51:00;;;;;;;8.60;4.82;;;14.00;34.60;;;;;;5148101;27;45216;-49
2024/01/18 09:53:28;;;;;;;9.02;5.32;;;14.00;34.50;;;;;;5146974;27;45224;-49
2024/01/18 09:55:59;;;;;;;8.55;4.65;;;14.10;34.70;;;;;;5147131;27;45223;-49
2024/01/18 09:58:26;;;;;;;8.20;5.05;;;14.00;34.60;;;;;;5146154;27;45198;-48
2024/01/18 10:00:56;;;;;;;8.23;5.50;;;14.10;34.90;;;;;;5149057;27;45653;-49
2024/01/18 10:03:23;;;;;;;8.73;4.97;;;14.10;34.70;;;;;;5146980;27;45455;-49
2024/01/18 10:05:50;;;;;;;7.95;5.18;;;14.10;34.70;;;;;;5146525;27;45245;-49
2024/01/18 10:08:17;;;;;;;9.10;5.35;;;14.10;34.90;;;;;;5144995;27;45255;-48
2024/01/18 10:10:45;;;;;;;11.65;5.45;;;14.10;34.80;;;;;;5147602;27;45283;-48
2024/01/18 10:13:13;;;;;;;9.60;5.22;;;14.10;35.00;;;;;;5148555;27;45322;-49
2024/01/18 10:15:40;;;;;;;7.38;4.63;;;14.00;34.80;;;;;;5145252;27;45854;-49
2024/01/18 10:18:12;;;;;;;7.22;4.25;;;14.00;35.10;;;;;;5147776;27;46059;-49
2024/01/18 10:20:40;;;;;;;7.72;5.03;;;14.00;35.10;;;;;;5146974;27;44661;-49
2024/01/18 10:23:07;;;;;;;8.35;5.20;;;14.00;35.10;;;;;;5146319;27;45354;-49
2024/01/18 10:25:34;;;;;;;9.20;4.75;;;14.00;35.20;;;;;;5154232;27;45232;-49
2024/01/18 10:28:02;;;;;;;9.52;5.22;;;14.00;35.20;;;;;;5149034;27;47616;-49
2024/01/18 10:30:31;;;;;;;6.90;4.93;;;14.00;35.40;;;;;;5151584;27;45109;-49
2024/01/18 10:33:01;;;;;;;8.45;4.28;;;14.00;35.50;;;;;;5151759;27;45262;-49
2024/01/18 10:35:28;;;;;;;6.97;5.00;;;14.00;35.50;;;;;;5151733;27;45106;-49
2024/01/18 10:38:03;;;;;;;7.45;4.63;;;14.00;35.50;;;;;;5148077;27;46213;-49
2024/01/18 10:40:31;;;;;;;7.65;4.75;;;14.00;35.70;;;;;;5152178;27;45274;-49
2024/01/18 10:42:58;;;;;;;7.25;4.30;;;14.00;35.70;;;;;;5149986;27;45344;-49
2024/01/18 10:45:29;;;;;;;6.55;4.25;;;14.00;35.70;;;;;;5149426;27;45197;-49
2024/01/18 10:47:56;;;;;;;8.65;5.07;;;14.00;35.80;;;;;;5149731;27;45178;-49
2024/01/18 10:50:23;;;;;;;6.90;4.35;;;14.00;35.90;;;;;;5147930;27;45187;-48
2024/01/18 10:52:52;;;;;;;7.90;4.20;;;14.00;35.70;;;;;;5153347;27;45264;-49
2024/01/18 10:55:19;;;;;;;9.20;5.28;;;14.00;35.80;;;;;;5149558;27;45300;-48
2024/01/18 10:57:46;;;;;;;6.68;4.63;;;14.00;36.10;;;;;;5150087;27;46205;-49
2024/01/18 11:00:15;;;;;;;9.70;4.47;;;14.00;36.20;;;;;;5151931;27;45768;-49
2024/01/18 11:02:44;;;;;;;7.22;4.47;;;14.00;35.60;;;;;;5150651;27;44764;-49
2024/01/18 11:05:12;;;;;;;10.43;4.75;;;14.00;35.40;;;;;;5149970;27;45975;-49
2024/01/18 11:07:40;;;;;;;8.50;4.80;;;13.90;35.00;;;;;;5149027;27;46384;-49
2024/01/18 11:10:11;;;;;;;8.25;5.03;;;13.90;34.50;;;;;;5148339;27;44749;-49
2024/01/18 11:12:40;;;;;;;7.80;4.32;;;13.90;34.60;;;;;;5154327;27;45398;-49
2024/01/18 11:15:10;;;;;;;7.72;4.47;;;13.90;34.40;;;;;;5151472;27;44834;-49
2024/01/18 11:17:37;;;;;;;8.15;5.40;;;13.90;34.30;;;;;;5151006;27;45264;-48
2024/01/18 11:20:10;;;;;;;6.95;4.47;;;13.90;34.20;;;;;;5150109;27;44814;-49
2024/01/18 11:22:39;;;;;;;6.68;4.40;;;13.90;34.00;;;;;;5150669;27;44673;-49
2024/01/18 11:25:09;;;;;;;15.50;4.85;;;13.90;33.80;;;;;;5150346;27;45320;-49
2024/01/18 11:27:38;;;;;;;9.55;4.78;;;14.00;37.40;;;;;;5150074;27;46047;-49
2024/01/18 11:30:06;;;;;;;7.78;4.68;;;14.10;34.20;;;;;;5150000;27;45329;-49
2024/01/18 11:32:34;;;;;;;10.10;4.30;;;14.00;34.10;;;;;;5148896;27;44703;-49
2024/01/18 11:35:13;;;;;;;9.93;4.10;;;14.00;34.20;;;;;;5152620;27;45463;-49
2024/01/18 11:37:40;;;;;;;6.30;3.92;;;13.90;34.00;;;;;;5145103;27;46862;-49
2024/01/18 11:40:09;;;;;;;8.05;4.00;;;14.00;34.00;;;;;;5148935;27;45169;-49
2024/01/18 11:42:36;;;;;;;6.57;3.95;;;13.90;33.90;;;;;;5151042;27;46194;-49
2024/01/18 11:45:04;;;;;;;6.35;3.85;;;14.00;34.00;;;;;;5149219;27;45579;-49
2024/01/18 11:47:32;;;;;;;8.02;3.90;;;13.90;33.90;;;;;;5150290;27;46292;-49
2024/01/18 11:50:05;;;;;;;6.85;3.33;;;13.90;34.00;;;;;;5144037;27;45268;-49
2024/01/18 11:52:34;;;;;;;7.70;3.50;;;13.90;33.80;;;;;;5152975;27;45417;-49
2024/01/18 11:55:02;;;;;;;5.45;3.45;;;14.00;34.50;;;;;;5147470;27;45159;-49
2024/01/18 11:57:29;;;;;;;4.93;3.10;;;14.00;34.80;;;;;;5148749;27;45275;-49
2024/01/18 11:59:56;;;;;;;5.15;2.83;;;14.00;35.00;;;;;;5149207;27;45611;-49
2024/01/18 12:02:24;;;;;;;5.30;2.95;;;14.00;35.10;;;;;;5149595;27;44664;-49
2024/01/18 12:04:51;;;;;;;4.85;3.00;;;14.10;35.50;;;;;;5148629;27;45173;-49
2024/01/18 12:07:19;;;;;;;6.93;2.85;;;14.10;35.50;;;;;;5145130;27;46315;-49
2024/01/18 12:09:48;;;;;;;5.70;3.17;;;14.00;35.70;;;;;;5148435;27;45239;-49
2024/01/18 12:12:16;;;;;;;8.75;2.60;;;14.10;35.90;;;;;;5153056;27;45350;-49
2024/01/18 12:14:44;;;;;;;5.32;3.05;;;14.10;35.70;;;;;;5150188;27;44821;-49
2024/01/18 12:17:13;;;;;;;4.18;2.60;;;14.10;35.70;;;;;;5147438;27;46541;-49
2024/01/18 12:19:42;;;;;;;4.53;2.53;;;14.20;35.90;;;;;;5156595;27;45352;-49
2024/01/18 12:22:10;;;;;;;7.32;3.05;;;14.10;35.80;;;;;;5153908;27;45269;-49
2024/01/18 12:24:37;;;;;;;6.60;2.90;;;14.10;35.90;;;;;;5156393;27;45216;-49
2024/01/18 12:27:07;;;;;;;6.85;3.03;;;14.20;37.20;;;;;;5153415;27;45416;-49
2024/01/18 12:29:35;;;;;;;5.78;2.70;;;14.20;35.90;;;;;;5154147;27;45180;-49
2024/01/18 12:32:02;;;;;;;3.97;2.53;;;14.20;35.90;;;;;;5152082;27;45284;-49
2024/01/18 12:34:32;;;;;;;4.15;2.90;;;14.20;36.00;;;;;;5151885;27;45117;-49
2024/01/18 12:36:59;;;;;;;5.13;2.58;;;14.30;36.10;;;;;;5151667;27;47320;-49
2024/01/18 12:39:26;;;;;;;5.25;2.67;;;14.30;35.90;;;;;;5149648;27;45223;-50
2024/01/18 12:41:53;;;;;;;3.63;2.17;;;14.40;35.80;;;;;;5153240;27;45300;-49
2024/01/18 12:44:22;;;;;;;5.82;2.92;;;14.40;36.10;;;;;;5152577;27;45231;-49
2024/01/18 12:46:51;;;;;;;4.25;2.67;;;14.40;36.00;;;;;;5148481;27;45433;-49